createdAt,value
2022-09-12T00:00:17.133Z,15.53
2022-09-12T00:02:44.647Z,15.53
2022-09-12T00:05:12.110Z,15.39
2022-09-12T00:07:39.554Z,15.25
2022-09-12T00:10:07.599Z,15.21
2022-09-12T00:12:35.115Z,15.20
2022-09-12T00:15:02.674Z,15.00
2022-09-12T00:17:31.520Z,14.99
2022-09-12T00:19:59.054Z,14.99
2022-09-12T00:22:26.528Z,15.05
2022-09-12T00:24:54.000Z,15.04
2022-09-12T00:27:21.486Z,14.79
2022-09-12T00:29:48.951Z,14.59
2022-09-12T00:32:16.447Z,14.72
2022-09-12T00:34:45.400Z,14.70
2022-09-12T00:37:13.039Z,14.68
2022-09-12T00:39:40.653Z,14.64
2022-09-12T00:42:10.143Z,14.57
2022-09-12T00:44:47.949Z,14.61
2022-09-12T00:47:19.046Z,14.62
2022-09-12T00:49:52.213Z,14.56
2022-09-12T00:52:25.383Z,14.42
2022-09-12T00:54:57.536Z,14.39
2022-09-12T00:57:29.485Z,14.36
2022-09-12T01:00:00.320Z,14.38
2022-09-12T01:02:28.956Z,14.38
2022-09-12T01:04:58.402Z,14.36
2022-09-12T01:07:25.965Z,14.36
2022-09-12T01:09:53.742Z,14.35
2022-09-12T01:12:21.654Z,14.33
2022-09-12T01:14:49.121Z,14.32
2022-09-12T01:17:16.988Z,14.28
2022-09-12T01:20:21.859Z,14.36
2022-09-12T01:23:11.737Z,14.23
2022-09-12T01:25:51.585Z,14.09
2022-09-12T01:28:47.385Z,14.04
2022-09-12T01:31:21.972Z,13.99
2022-09-12T01:34:03.477Z,13.84
2022-09-12T01:36:38.113Z,13.76
2022-09-12T01:39:09.627Z,13.84
2022-09-12T01:41:49.945Z,13.88
2022-09-12T01:44:27.372Z,13.83
2022-09-12T01:47:01.872Z,13.77
2022-09-12T01:49:37.311Z,13.80
2022-09-12T01:52:13.912Z,13.82
2022-09-12T01:54:46.405Z,13.71
2022-09-12T01:57:17.942Z,13.72
2022-09-12T01:59:48.922Z,13.75
2022-09-12T02:02:23.812Z,13.74
2022-09-12T02:04:59.190Z,13.61
2022-09-12T02:07:35.710Z,13.59
2022-09-12T02:10:08.576Z,13.65
2022-09-12T02:12:43.588Z,13.64
2022-09-12T02:15:13.502Z,13.63
2022-09-12T02:17:45.319Z,13.66
2022-09-12T02:20:37.195Z,13.65
2022-09-12T02:23:09.687Z,13.66
2022-09-12T02:25:40.900Z,13.66
2022-09-12T02:28:13.439Z,13.66
2022-09-12T02:30:44.630Z,13.61
2022-09-12T02:33:24.027Z,13.47
2022-09-12T02:35:58.184Z,13.52
2022-09-12T02:38:32.720Z,13.52
2022-09-12T02:41:00.275Z,13.59
2022-09-12T02:43:27.832Z,13.60
2022-09-12T02:45:55.340Z,13.61
2022-09-12T02:48:28.468Z,13.65
2022-09-12T02:50:56.239Z,13.62
2022-09-12T02:53:24.340Z,13.61
2022-09-12T02:55:52.994Z,13.59
2022-09-12T02:58:24.076Z,13.48
2022-09-12T03:01:01.129Z,13.14
2022-09-12T03:03:45.895Z,13.30
2022-09-12T03:06:19.207Z,13.41
2022-09-12T03:09:01.622Z,13.47
2022-09-12T03:11:44.212Z,13.37
2022-09-12T03:14:23.340Z,13.37
2022-09-12T03:16:58.314Z,13.37
2022-09-12T03:19:36.190Z,13.40
2022-09-12T03:22:11.397Z,13.30
2022-09-12T03:24:45.972Z,13.17
2022-09-12T03:27:18.023Z,13.07
2022-09-12T03:29:48.118Z,13.03
2022-09-12T03:32:16.552Z,13.08
2022-09-12T03:34:45.364Z,13.10
2022-09-12T03:37:12.843Z,12.98
2022-09-12T03:39:40.394Z,12.99
2022-09-12T03:42:07.997Z,13.01
2022-09-12T03:44:35.473Z,13.01
2022-09-12T03:47:02.924Z,12.96
2022-09-12T03:49:30.389Z,12.77
2022-09-12T03:51:59.199Z,12.85
2022-09-12T03:54:26.654Z,12.97
2022-09-12T03:56:54.113Z,12.96
2022-09-12T03:59:21.608Z,12.96
2022-09-12T04:01:49.087Z,12.94
2022-09-12T04:04:16.531Z,12.97
2022-09-12T04:06:44.074Z,12.94
2022-09-12T04:09:12.909Z,12.89
2022-09-12T04:11:40.409Z,12.84
2022-09-12T04:14:07.951Z,12.80
2022-09-12T04:16:35.457Z,12.71
2022-09-12T04:19:03.008Z,12.69
2022-09-12T04:21:30.912Z,12.66
2022-09-12T04:23:58.411Z,12.72
2022-09-12T04:26:29.693Z,12.68
2022-09-12T04:28:57.575Z,12.72
2022-09-12T04:31:26.115Z,12.77
2022-09-12T04:33:57.849Z,12.70
2022-09-12T04:36:26.222Z,12.59
2022-09-12T04:38:53.792Z,12.42
2022-09-12T04:41:22.998Z,12.50
2022-09-12T04:43:55.133Z,12.61
2022-09-12T04:46:22.932Z,12.61
2022-09-12T04:48:54.610Z,12.68
2022-09-12T04:51:27.634Z,12.81
2022-09-12T04:53:56.729Z,13.01
2022-09-12T04:56:25.205Z,13.16
2022-09-12T04:58:54.024Z,13.31
2022-09-12T05:01:23.165Z,13.29
2022-09-12T05:03:51.745Z,13.31
2022-09-12T05:06:21.988Z,13.44
2022-09-12T05:08:49.877Z,13.67
2022-09-12T05:11:24.087Z,13.79
2022-09-12T05:13:54.160Z,13.61
2022-09-12T05:16:22.758Z,13.71
2022-09-12T05:18:50.417Z,13.90
2022-09-12T05:21:19.895Z,14.16
2022-09-12T05:23:48.634Z,14.39
2022-09-12T05:26:17.266Z,14.61
2022-09-12T05:28:44.726Z,14.85
2022-09-12T05:31:15.648Z,14.97
2022-09-12T05:33:45.679Z,15.09
2022-09-12T05:36:15.459Z,15.19
2022-09-12T05:38:42.949Z,15.40
2022-09-12T05:41:16.650Z,15.60
2022-09-12T05:43:46.533Z,15.77
2022-09-12T05:46:17.240Z,15.87
2022-09-12T05:48:46.436Z,16.05
2022-09-12T05:51:17.454Z,16.36
2022-09-12T05:53:45.158Z,16.63
2022-09-12T05:56:14.429Z,16.57
2022-09-12T05:58:45.189Z,16.74
2022-09-12T06:01:15.947Z,16.77
2022-09-12T06:03:46.205Z,16.83
2022-09-12T06:06:14.836Z,16.88
2022-09-12T06:08:44.199Z,16.50
2022-09-12T06:11:13.306Z,16.59
2022-09-12T06:13:42.116Z,16.92
2022-09-12T06:16:11.762Z,16.76
2022-09-12T06:18:41.535Z,15.75
2022-09-12T06:21:11.326Z,15.71
2022-09-12T06:23:40.064Z,15.92
2022-09-12T06:26:11.004Z,15.96
2022-09-12T06:28:40.601Z,16.61
2022-09-12T06:31:10.925Z,17.19
2022-09-12T06:33:41.902Z,17.16
2022-09-12T06:36:12.541Z,17.21
2022-09-12T06:38:40.425Z,15.75
2022-09-12T06:41:09.112Z,15.84
2022-09-12T06:43:37.214Z,16.42
2022-09-12T06:46:05.388Z,16.44
2022-09-12T06:48:33.190Z,16.93
2022-09-12T06:51:04.776Z,16.83
2022-09-12T06:53:34.226Z,17.61
2022-09-12T06:56:03.335Z,17.32
2022-09-12T06:58:31.410Z,17.84
2022-09-12T07:01:03.197Z,17.21
2022-09-12T07:03:30.736Z,17.19
2022-09-12T07:05:58.708Z,17.36
2022-09-12T07:08:31.710Z,17.26
2022-09-12T07:11:01.169Z,16.55
2022-09-12T07:13:28.710Z,17.23
2022-09-12T07:15:56.287Z,18.16
2022-09-12T07:18:24.154Z,18.51
2022-09-12T07:20:51.598Z,18.87
2022-09-12T07:23:19.066Z,19.54
2022-09-12T07:25:57.036Z,19.20
2022-09-12T07:28:25.249Z,19.70
2022-09-12T07:30:53.898Z,19.58
2022-09-12T07:33:21.728Z,20.12
2022-09-12T07:35:49.556Z,20.66
2022-09-12T07:38:17.116Z,20.96
2022-09-12T07:40:44.606Z,21.78
2022-09-12T07:43:13.469Z,22.82
2022-09-12T07:45:42.282Z,23.79
2022-09-12T07:48:10.414Z,23.10
2022-09-12T07:50:40.035Z,23.97
2022-09-12T07:53:11.550Z,25.01
2022-09-12T07:55:38.992Z,25.93
2022-09-12T07:58:06.476Z,26.05
2022-09-12T08:00:36.369Z,26.13
2022-09-12T08:03:04.415Z,25.77
2022-09-12T08:05:31.861Z,24.81
2022-09-12T08:07:59.307Z,25.20
2022-09-12T08:10:26.742Z,26.25
2022-09-12T08:12:54.226Z,26.96
2022-09-12T08:15:21.895Z,28.18
2022-09-12T08:17:50.826Z,28.86
2022-09-12T08:20:18.536Z,29.25
2022-09-12T08:22:46.015Z,29.19
2022-09-12T08:25:13.530Z,29.29
2022-09-12T08:27:41.220Z,29.31
2022-09-12T08:30:09.790Z,30.08
2022-09-12T08:32:37.243Z,30.58
2022-09-12T08:35:07.990Z,32.26
2022-09-12T08:37:35.443Z,33.25
2022-09-12T08:40:06.576Z,33.79
2022-09-12T08:42:48.924Z,34.02
2022-09-12T08:45:23.751Z,33.82
2022-09-12T08:47:52.008Z,33.09
2022-09-12T08:50:23.287Z,32.31
2022-09-12T08:52:58.391Z,30.62
2022-09-12T08:55:31.346Z,29.65
2022-09-12T08:58:00.455Z,29.28
2022-09-12T09:00:38.031Z,28.40
2022-09-12T09:03:24.991Z,27.98
2022-09-12T09:06:02.334Z,28.22
2022-09-12T09:08:45.954Z,27.00
2022-09-12T09:11:30.479Z,24.75
2022-09-12T09:14:27.352Z,24.23
2022-09-12T09:16:57.191Z,24.12
2022-09-12T09:19:27.959Z,24.39
2022-09-12T09:22:01.657Z,25.08
2022-09-12T09:24:35.789Z,25.27
2022-09-12T09:27:23.613Z,25.12
2022-09-12T09:29:56.884Z,24.37
2022-09-12T09:32:28.051Z,25.16
2022-09-12T09:34:55.582Z,25.36
2022-09-12T09:37:34.908Z,23.50
2022-09-12T09:40:12.000Z,21.83
2022-09-12T09:42:46.897Z,21.20
2022-09-12T09:45:16.820Z,21.20
2022-09-12T09:47:46.788Z,22.80
2022-09-12T09:50:17.474Z,23.36
2022-09-12T09:52:48.256Z,24.54
2022-09-12T09:55:21.004Z,25.43
2022-09-12T09:57:49.890Z,26.41
2022-09-12T10:00:27.011Z,27.80
2022-09-12T10:03:04.556Z,28.54
2022-09-12T10:05:35.552Z,28.95
2022-09-12T10:08:08.081Z,29.10
2022-09-12T10:10:35.547Z,29.57
2022-09-12T10:13:25.991Z,30.13
2022-09-12T10:16:02.416Z,30.28
2022-09-12T10:18:35.816Z,30.70
2022-09-12T10:21:13.299Z,30.14
2022-09-12T10:23:43.498Z,30.90
2022-09-12T10:26:13.775Z,31.45
2022-09-12T10:28:43.619Z,31.87
2022-09-12T10:31:15.652Z,31.75
2022-09-12T10:33:47.261Z,31.36
2022-09-12T10:36:16.532Z,31.49
2022-09-12T10:38:51.951Z,31.81
2022-09-12T10:41:20.480Z,31.26
2022-09-12T10:43:48.353Z,30.56
2022-09-12T10:46:25.060Z,30.00
2022-09-12T10:49:13.008Z,30.36
2022-09-12T10:51:40.454Z,32.14
2022-09-12T10:54:12.678Z,32.00
2022-09-12T10:56:47.738Z,30.85
2022-09-12T10:59:29.466Z,30.67
2022-09-12T11:02:01.406Z,28.11
2022-09-12T11:04:41.842Z,27.54
2022-09-12T11:07:29.751Z,27.88
2022-09-12T11:10:03.800Z,29.19
2022-09-12T11:12:41.143Z,28.35
2022-09-12T11:15:39.588Z,28.29
2022-09-12T11:18:15.394Z,28.45
2022-09-12T11:20:55.798Z,29.08
2022-09-12T11:23:46.505Z,28.48
2022-09-12T11:26:27.658Z,28.05
2022-09-12T11:29:08.134Z,28.14
2022-09-12T11:31:53.642Z,27.72
2022-09-12T11:34:34.611Z,27.07
2022-09-12T11:37:21.233Z,27.08
2022-09-12T11:39:55.397Z,27.57
2022-09-12T11:42:29.408Z,29.54
2022-09-12T11:45:04.093Z,30.87
2022-09-12T11:47:34.822Z,29.62
2022-09-12T11:50:14.993Z,28.36
2022-09-12T11:52:42.507Z,27.14
2022-09-12T11:55:18.050Z,26.82
2022-09-12T11:57:53.469Z,26.40
2022-09-12T12:00:22.790Z,27.65
2022-09-12T12:03:01.122Z,28.02
2022-09-12T12:05:35.154Z,27.90
2022-09-12T12:08:05.839Z,27.53
2022-09-12T12:10:37.709Z,28.53
2022-09-12T12:13:14.252Z,28.68
2022-09-12T12:15:47.675Z,28.10
2022-09-12T12:18:19.241Z,28.10
2022-09-12T12:20:47.240Z,27.00
2022-09-12T12:23:26.803Z,26.06
2022-09-12T12:25:56.464Z,24.38
2022-09-12T12:29:00.025Z,25.94
2022-09-12T12:31:27.714Z,26.66
2022-09-12T12:34:26.247Z,27.39
2022-09-12T12:36:55.256Z,26.07
2022-09-12T12:40:00.846Z,25.66
2022-09-12T12:43:22.312Z,24.64
2022-09-12T12:46:12.838Z,25.08
2022-09-12T12:49:01.483Z,24.73
2022-09-12T12:51:33.924Z,25.18
2022-09-12T12:54:04.807Z,24.92
2022-09-12T12:56:40.119Z,25.23
2022-09-12T12:59:18.193Z,26.13
2022-09-12T13:01:52.819Z,27.66
2022-09-12T13:04:24.488Z,28.51
2022-09-12T13:07:02.574Z,28.28
2022-09-12T13:09:35.836Z,27.24
2022-09-12T13:12:06.044Z,27.03
2022-09-12T13:14:49.226Z,27.43
2022-09-12T13:17:22.883Z,27.19
2022-09-12T13:20:10.627Z,25.77
2022-09-12T13:22:42.556Z,25.17
2022-09-12T13:25:23.866Z,25.34
2022-09-12T13:28:18.376Z,25.50
2022-09-12T13:30:48.632Z,25.42
2022-09-12T13:33:21.726Z,25.54
2022-09-12T13:36:09.769Z,25.43
2022-09-12T13:38:47.931Z,25.22
2022-09-12T13:41:33.892Z,25.13
2022-09-12T13:44:02.533Z,25.02
2022-09-12T13:46:33.913Z,24.97
2022-09-12T13:49:18.593Z,24.86
2022-09-12T13:51:46.192Z,24.86
2022-09-12T13:54:23.871Z,25.59
2022-09-12T13:56:53.310Z,25.86
2022-09-12T13:59:20.737Z,25.50
2022-09-12T14:01:48.803Z,25.79
2022-09-12T14:04:36.353Z,25.89
2022-09-12T14:07:12.911Z,25.59
2022-09-12T14:09:42.642Z,25.29
2022-09-12T14:12:25.071Z,25.43
2022-09-12T14:14:54.075Z,25.26
2022-09-12T14:17:27.417Z,25.13
2022-09-12T14:19:55.390Z,25.11
2022-09-12T14:22:23.484Z,25.09
2022-09-12T14:24:51.779Z,24.97
2022-09-12T14:27:26.687Z,24.78
2022-09-12T14:29:59.012Z,24.70
2022-09-12T14:32:26.456Z,24.94
2022-09-12T14:35:14.938Z,24.49
2022-09-12T14:37:51.168Z,24.81
2022-09-12T14:40:21.511Z,24.88
2022-09-12T14:42:52.614Z,24.66
2022-09-12T14:45:32.345Z,24.39
2022-09-12T14:48:00.382Z,24.45
2022-09-12T14:50:31.179Z,24.73
2022-09-12T14:53:06.406Z,24.76
2022-09-12T14:55:35.220Z,25.06
2022-09-12T14:58:17.100Z,25.30
2022-09-12T15:00:55.935Z,25.60
2022-09-12T15:03:28.167Z,25.64
2022-09-12T15:05:56.191Z,25.46
2022-09-12T15:08:23.980Z,25.64
2022-09-12T15:10:51.580Z,25.54
2022-09-12T15:13:22.949Z,25.21
2022-09-12T15:15:52.684Z,25.00
2022-09-12T15:18:21.397Z,24.99
2022-09-12T15:20:51.266Z,25.03
2022-09-12T15:23:22.060Z,24.70
2022-09-12T15:25:50.114Z,24.19
2022-09-12T15:28:22.471Z,24.40
2022-09-12T15:30:51.394Z,24.31
2022-09-12T15:33:20.851Z,24.04
2022-09-12T15:35:48.365Z,23.84
2022-09-12T15:38:15.842Z,24.12
2022-09-12T15:40:43.335Z,24.07
2022-09-12T15:43:12.995Z,23.91
2022-09-12T15:45:51.347Z,23.40
2022-09-12T15:48:19.198Z,23.20
2022-09-12T15:50:46.710Z,23.00
2022-09-12T15:53:16.079Z,23.05
2022-09-12T15:55:43.932Z,23.18
2022-09-12T15:58:11.729Z,23.57
2022-09-12T16:00:39.263Z,23.62
2022-09-12T16:03:13.650Z,24.07
2022-09-12T16:05:45.518Z,24.14
2022-09-12T16:08:12.989Z,24.34
2022-09-12T16:10:40.465Z,24.49
2022-09-12T16:13:07.910Z,24.60
2022-09-12T16:15:35.715Z,24.89
2022-09-12T16:18:03.195Z,24.73
2022-09-12T16:20:31.996Z,24.96
2022-09-12T16:22:59.482Z,25.14
2022-09-12T16:25:26.932Z,25.07
2022-09-12T16:27:54.447Z,25.32
2022-09-12T16:30:22.051Z,25.54
2022-09-12T16:32:49.542Z,25.50
2022-09-12T16:35:17.114Z,25.65
2022-09-12T16:37:45.903Z,26.17
2022-09-12T16:40:15.237Z,26.33
2022-09-12T16:42:43.891Z,26.68
2022-09-12T16:45:12.539Z,26.97
2022-09-12T16:47:40.098Z,26.87
2022-09-12T16:50:08.834Z,26.78
2022-09-12T16:52:36.479Z,26.29
2022-09-12T16:55:06.218Z,25.73
2022-09-12T16:57:33.930Z,25.51
2022-09-12T17:00:01.402Z,25.33
2022-09-12T17:02:28.889Z,25.21
2022-09-12T17:04:56.699Z,25.10
2022-09-12T17:07:24.163Z,24.96
2022-09-12T17:09:51.992Z,24.63
2022-09-12T17:12:20.787Z,24.51
2022-09-12T17:14:48.239Z,24.28
2022-09-12T17:17:15.691Z,23.98
2022-09-12T17:19:43.399Z,23.70
2022-09-12T17:22:10.876Z,23.46
2022-09-12T17:24:38.364Z,23.04
2022-09-12T17:27:06.267Z,22.81
2022-09-12T17:29:36.972Z,22.49
2022-09-12T17:32:04.463Z,22.29
2022-09-12T17:34:32.095Z,22.09
2022-09-12T17:36:59.554Z,21.83
2022-09-12T17:39:27.312Z,21.55
2022-09-12T17:41:57.374Z,21.31
2022-09-12T17:44:24.892Z,20.96
2022-09-12T17:46:53.679Z,20.70
2022-09-12T17:49:22.005Z,20.45
2022-09-12T17:51:49.587Z,20.33
2022-09-12T17:54:20.679Z,20.21
2022-09-12T17:56:51.216Z,19.98
2022-09-12T17:59:20.462Z,19.57
2022-09-12T18:02:05.849Z,19.56
2022-09-12T18:04:34.713Z,19.43
2022-09-12T18:07:02.285Z,19.16
2022-09-12T18:09:30.638Z,19.08
2022-09-12T18:11:58.415Z,19.05
2022-09-12T18:14:27.649Z,18.95
2022-09-12T18:16:57.019Z,18.83
2022-09-12T18:19:25.207Z,18.62
2022-09-12T18:21:54.367Z,18.51
2022-09-12T18:24:22.111Z,18.52
2022-09-12T18:26:49.642Z,18.39
2022-09-12T18:29:17.623Z,18.20
2022-09-12T18:31:46.644Z,18.19
2022-09-12T18:34:14.620Z,18.19
2022-09-12T18:36:42.795Z,18.13
2022-09-12T18:39:12.220Z,18.02
2022-09-12T18:41:40.322Z,17.94
2022-09-12T18:44:08.570Z,17.84
2022-09-12T18:46:36.449Z,17.74
2022-09-12T18:49:05.539Z,17.43
2022-09-12T18:51:35.910Z,17.39
2022-09-12T18:54:06.749Z,17.45
2022-09-12T18:56:38.242Z,17.45
2022-09-12T18:59:07.314Z,17.36
2022-09-12T19:01:36.545Z,17.35
2022-09-12T19:04:06.002Z,17.29
2022-09-12T19:06:36.162Z,17.21
2022-09-12T19:09:07.768Z,16.94
2022-09-12T19:11:39.512Z,16.97
2022-09-12T19:14:08.181Z,16.69
2022-09-12T19:16:36.103Z,16.83
2022-09-12T19:19:04.216Z,16.88
2022-09-12T19:21:32.876Z,16.84
2022-09-12T19:24:02.953Z,16.76
2022-09-12T19:26:31.852Z,16.68
2022-09-12T19:29:02.466Z,16.61
2022-09-12T19:31:30.815Z,16.62
2022-09-12T19:34:01.383Z,16.58
2022-09-12T19:36:46.212Z,16.46
2022-09-12T19:39:14.443Z,16.38
2022-09-12T19:41:42.507Z,16.32
2022-09-12T19:44:11.530Z,16.32
2022-09-12T19:46:39.472Z,16.32
2022-09-12T19:49:07.004Z,16.27
2022-09-12T19:51:34.463Z,16.23
2022-09-12T19:54:02.109Z,16.18
2022-09-12T19:56:29.574Z,16.12
2022-09-12T19:58:57.109Z,16.08
2022-09-12T20:01:28.178Z,16.04
2022-09-12T20:03:56.418Z,16.02
2022-09-12T20:06:24.259Z,15.71
2022-09-12T20:08:51.970Z,15.85
2022-09-12T20:11:21.475Z,15.94
2022-09-12T20:13:49.131Z,15.96
2022-09-12T20:16:21.661Z,15.87
2022-09-12T20:18:54.410Z,15.71
2022-09-12T20:21:25.174Z,15.76
2022-09-12T20:23:52.874Z,15.78
2022-09-12T20:26:20.707Z,15.78
2022-09-12T20:28:48.592Z,15.71
2022-09-12T20:31:17.488Z,15.77
2022-09-12T20:33:49.837Z,15.69
2022-09-12T20:36:21.820Z,15.59
2022-09-12T20:38:50.789Z,15.55
2022-09-12T20:41:20.098Z,15.46
2022-09-12T20:43:50.962Z,15.44
2022-09-12T20:46:21.909Z,15.36
2022-09-12T20:48:50.273Z,15.34
2022-09-12T20:51:18.448Z,15.33
2022-09-12T20:53:47.983Z,15.35
2022-09-12T20:56:15.611Z,15.37
2022-09-12T20:58:44.630Z,15.31
2022-09-12T21:01:15.720Z,15.22
2022-09-12T21:03:44.661Z,15.18
2022-09-12T21:06:14.187Z,14.98
2022-09-12T21:08:41.651Z,15.15
2022-09-12T21:11:10.816Z,15.14
2022-09-12T21:13:38.899Z,15.12
2022-09-12T21:16:08.934Z,15.14
2022-09-12T21:18:37.311Z,15.12
2022-09-12T21:21:05.851Z,15.05
2022-09-12T21:23:34.428Z,14.99
2022-09-12T21:26:02.848Z,14.91
2022-09-12T21:28:32.506Z,14.95
2022-09-12T21:31:00.142Z,14.95
2022-09-12T21:33:28.105Z,14.96
2022-09-12T21:35:57.908Z,14.84
2022-09-12T21:38:25.437Z,14.87
2022-09-12T21:40:52.970Z,14.87
2022-09-12T21:43:20.426Z,14.85
2022-09-12T21:45:49.878Z,14.79
2022-09-12T21:48:17.340Z,14.71
2022-09-12T21:50:50.635Z,14.69
2022-09-12T21:53:18.278Z,14.63
2022-09-12T21:55:45.766Z,14.65
2022-09-12T21:58:13.276Z,14.65
2022-09-12T22:00:42.096Z,14.63
2022-09-12T22:03:11.529Z,14.58
2022-09-12T22:05:40.100Z,14.60
2022-09-12T22:08:08.450Z,14.67
2022-09-12T22:10:36.432Z,14.72
2022-09-12T22:13:04.066Z,14.69
2022-09-12T22:15:46.946Z,14.67
2022-09-12T22:18:15.859Z,14.64
2022-09-12T22:20:43.303Z,14.64
2022-09-12T22:23:26.562Z,14.66
2022-09-12T22:25:56.160Z,14.58
2022-09-12T22:28:25.027Z,14.56
2022-09-12T22:30:54.259Z,14.41
2022-09-12T22:33:23.301Z,14.47
2022-09-12T22:35:50.838Z,14.50
2022-09-12T22:38:18.334Z,14.55
2022-09-12T22:40:45.833Z,14.59
2022-09-12T22:43:13.443Z,14.60
2022-09-12T22:45:41.872Z,14.55
2022-09-12T22:48:09.527Z,14.51
2022-09-12T22:50:38.409Z,14.46
2022-09-12T22:53:05.901Z,14.40
2022-09-12T22:55:33.338Z,14.32
2022-09-12T22:58:00.932Z,14.38
2022-09-12T23:00:29.940Z,14.31
2022-09-12T23:02:58.308Z,14.20
2022-09-12T23:05:25.917Z,14.24
2022-09-12T23:07:55.528Z,14.17
2022-09-12T23:10:23.303Z,14.23
2022-09-12T23:12:50.771Z,14.32
2022-09-12T23:15:18.265Z,14.21
2022-09-12T23:17:45.769Z,14.16
2022-09-12T23:20:13.238Z,14.18
2022-09-12T23:22:40.714Z,14.13
2022-09-12T23:25:10.162Z,14.12
2022-09-12T23:27:37.647Z,14.01
2022-09-12T23:30:05.882Z,13.17
2022-09-12T23:32:33.491Z,13.49
2022-09-12T23:35:00.965Z,13.83
2022-09-12T23:37:28.422Z,13.99
2022-09-12T23:39:55.962Z,14.05
2022-09-12T23:42:24.866Z,14.13
2022-09-12T23:44:52.348Z,14.16
2022-09-12T23:47:19.817Z,14.20
2022-09-12T23:49:47.294Z,14.10
2022-09-12T23:52:14.743Z,14.03
2022-09-12T23:54:42.196Z,13.99
2022-09-12T23:57:09.702Z,13.92
2022-09-12T23:59:38.518Z,13.93
